Kohat Weather



Kohat's Current Weather

Temprature 35o haze

haze

Rain: 0 %

Min Temprature35o
Max Temprature35o
Humidity36
Wind Speed5.1 m/h
Sun Rise05:09:25
Sun Set19:27:50
Current Time: 05-Jul-2020 18:19:00
Lat/Lon: 33.58, 71.45




Kohat's Geo Location



Kohat's Weather Forecast

Time Overall Temp Min Temp Max Temp Humidity Wind Speed Rain
05-Jul-2020 (Sun)
20:00:00 few clouds 34.760 34.500 34.760 33 2.41 m/h 0 %
23:00:00 clear sky 32.640 31.990 32.640 37 1.5 m/h 0 %
06-Jul-2020 (Mon)
02:00:00 clear sky 30.220 29.890 30.220 43 1.92 m/h 0 %
05:00:00 clear sky 29.080 29.030 29.080 45 1.6 m/h 0 %
08:00:00 few clouds 31.350 31.350 31.350 37 1.77 m/h 0 %
11:00:00 scattered clouds 35.220 35.220 35.220 29 1.32 m/h 0 %
14:00:00 scattered clouds 37.970 37.970 37.970 22 1.74 m/h 0 %
17:00:00 few clouds 38.880 38.880 38.880 19 1.72 m/h 0 %
20:00:00 light rain 36.960 36.960 36.960 24 3.35 m/h 16 %
23:00:00 scattered clouds 35.340 35.340 35.340 31 1.09 m/h 0 %
07-Jul-2020 (Tue)
02:00:00 scattered clouds 33.500 33.500 33.500 35 1.28 m/h 0 %
05:00:00 light rain 32.300 32.300 32.300 36 1.14 m/h 15 %
08:00:00 light rain 34.810 34.810 34.810 26 2.14 m/h 51 %
11:00:00 light rain 38.820 38.820 38.820 20 0.8 m/h 37 %
14:00:00 clear sky 40.980 40.980 40.980 16 2.17 m/h 0 %
17:00:00 clear sky 40.510 40.510 40.510 17 0.94 m/h 0 %
20:00:00 few clouds 39.010 39.010 39.010 22 1.68 m/h 0 %
23:00:00 clear sky 36.920 36.920 36.920 27 0.76 m/h 0 %
08-Jul-2020 (Wed)
02:00:00 clear sky 35.240 35.240 35.240 28 1.36 m/h 0 %
05:00:00 clear sky 33.850 33.850 33.850 29 1.73 m/h 0 %
08:00:00 clear sky 37.090 37.090 37.090 21 3.13 m/h 0 %
11:00:00 clear sky 39.930 39.930 39.930 19 3.54 m/h 0 %
14:00:00 clear sky 41.860 41.860 41.860 16 1.33 m/h 0 %
17:00:00 clear sky 42.750 42.750 42.750 15 2.58 m/h 0 %
20:00:00 clear sky 40.450 40.450 40.450 18 1.88 m/h 0 %
23:00:00 clear sky 38.030 38.030 38.030 23 0.64 m/h 0 %
09-Jul-2020 (Thu)
02:00:00 broken clouds 36.230 36.230 36.230 24 0.75 m/h 0 %
05:00:00 broken clouds 34.350 34.350 34.350 26 3.22 m/h 0 %
08:00:00 few clouds 35.500 35.500 35.500 27 4.34 m/h 0 %
11:00:00 clear sky 38.500 38.500 38.500 28 3.46 m/h 0 %
14:00:00 clear sky 41.400 41.400 41.400 23 2.36 m/h 0 %
17:00:00 clear sky 43.070 43.070 43.070 16 1.94 m/h 0 %
20:00:00 few clouds 39.570 39.570 39.570 22 3.64 m/h 0 %
23:00:00 light rain 31.290 31.290 31.290 40 3.16 m/h 154 %
10-Jul-2020 (Fri)
02:00:00 light rain 29.980 29.980 29.980 45 1.83 m/h 278 %
05:00:00 broken clouds 29.950 29.950 29.950 45 2.9 m/h 0 %
08:00:00 clear sky 30.680 30.680 30.680 47 2.66 m/h 0 %
11:00:00 clear sky 34.130 34.130 34.130 40 2.55 m/h 0 %
14:00:00 clear sky 37.470 37.470 37.470 31 2 m/h 0 %
17:00:00 clear sky 38.650 38.650 38.650 28 2.42 m/h 0 %

Famous Cities (60)